createdAt,value
2023-04-18T00:01:56.207Z,24.70
2023-04-18T00:04:25.439Z,24.70
2023-04-18T00:06:53.746Z,24.70
2023-04-18T00:09:21.890Z,24.60
2023-04-18T00:11:49.974Z,24.60
2023-04-18T00:14:18.958Z,24.60
2023-04-18T00:16:48.585Z,24.60
2023-04-18T00:19:16.729Z,24.60
2023-04-18T00:21:44.991Z,24.60
2023-04-18T00:24:13.619Z,24.50
2023-04-18T00:26:41.927Z,24.50
2023-04-18T00:29:10.038Z,24.50
2023-04-18T00:31:38.124Z,24.50
2023-04-18T00:34:07.684Z,24.60
2023-04-18T00:36:35.852Z,24.50
2023-04-18T00:39:03.974Z,24.50
2023-04-18T00:41:32.080Z,24.50
2023-04-18T00:44:00.200Z,24.50
2023-04-18T00:46:28.336Z,24.50
2023-04-18T00:48:56.672Z,24.50
2023-04-18T00:51:26.300Z,24.40
2023-04-18T00:53:55.509Z,24.40
2023-04-18T00:56:25.859Z,24.40
2023-04-18T00:58:54.216Z,24.40
2023-04-18T01:01:22.385Z,24.40
2023-04-18T01:03:50.684Z,24.40
2023-04-18T01:06:19.356Z,24.40
2023-04-18T01:08:48.921Z,24.40
2023-04-18T01:11:16.999Z,24.30
2023-04-18T01:13:58.924Z,24.30
2023-04-18T01:16:27.120Z,24.20
2023-04-18T01:18:55.496Z,24.20
2023-04-18T01:21:23.616Z,24.20
2023-04-18T01:23:54.557Z,24.20
2023-04-18T01:26:24.135Z,24.10
2023-04-18T01:28:52.228Z,24.10
2023-04-18T01:31:20.372Z,24.00
2023-04-18T01:33:48.505Z,24.00
2023-04-18T01:36:16.592Z,24.00
2023-04-18T01:38:44.704Z,24.00
2023-04-18T01:41:12.794Z,24.00
2023-04-18T01:43:42.280Z,23.90
2023-04-18T01:46:10.473Z,23.90
2023-04-18T01:48:38.683Z,23.90
2023-04-18T01:51:07.119Z,23.90
2023-04-18T01:53:35.255Z,23.90
2023-04-18T01:56:03.356Z,23.80
2023-04-18T01:58:31.475Z,23.80
2023-04-18T02:01:01.015Z,23.80
2023-04-18T02:03:29.416Z,23.80
2023-04-18T02:05:57.656Z,23.80
2023-04-18T02:08:25.758Z,23.80
2023-04-18T02:10:53.878Z,23.70
2023-04-18T02:13:21.990Z,23.80
2023-04-18T02:15:50.197Z,23.70
2023-04-18T02:18:19.677Z,23.70
2023-04-18T02:20:47.733Z,23.70
2023-04-18T02:23:15.868Z,23.70
2023-04-18T02:25:43.983Z,23.60
2023-04-18T02:28:12.079Z,23.60
2023-04-18T02:30:40.164Z,23.60
2023-04-18T02:33:08.364Z,23.60
2023-04-18T02:35:39.158Z,23.60
2023-04-18T02:38:07.322Z,23.60
2023-04-18T02:40:35.406Z,23.50
2023-04-18T02:43:03.568Z,23.50
2023-04-18T02:45:32.762Z,23.50
2023-04-18T02:48:01.016Z,23.50
2023-04-18T02:50:29.544Z,23.50
2023-04-18T02:52:59.033Z,23.50
2023-04-18T02:55:27.142Z,23.50
2023-04-18T02:57:55.980Z,23.40
2023-04-18T03:00:24.486Z,23.40
2023-04-18T03:02:53.170Z,23.40
2023-04-18T03:05:23.048Z,23.30
2023-04-18T03:07:51.130Z,23.30
2023-04-18T03:10:20.775Z,23.30
2023-04-18T03:12:48.856Z,23.30
2023-04-18T03:15:16.968Z,23.30
2023-04-18T03:17:45.123Z,23.30
2023-04-18T03:20:13.391Z,23.30
2023-04-18T03:22:41.482Z,23.20
2023-04-18T03:25:10.551Z,23.20
2023-04-18T03:27:40.005Z,23.20
2023-04-18T03:30:09.375Z,23.20
2023-04-18T03:32:38.609Z,23.20
2023-04-18T03:35:07.202Z,23.20
2023-04-18T03:37:35.298Z,23.10
2023-04-18T03:40:05.371Z,23.10
2023-04-18T03:42:33.470Z,23.10
2023-04-18T03:45:03.002Z,23.10
2023-04-18T03:47:32.132Z,23.10
2023-04-18T03:50:00.301Z,23.10
2023-04-18T03:52:29.857Z,23.10
2023-04-18T03:54:58.138Z,23.20
2023-04-18T03:57:26.302Z,23.20
2023-04-18T03:59:54.397Z,23.20
2023-04-18T04:02:23.968Z,23.20
2023-04-18T04:04:52.703Z,23.20
2023-04-18T04:07:20.954Z,23.30
2023-04-18T04:09:49.301Z,23.30
2023-04-18T04:12:17.482Z,23.30
2023-04-18T04:14:45.625Z,23.30
2023-04-18T04:17:13.721Z,23.30
2023-04-18T04:19:43.196Z,23.30
2023-04-18T04:22:11.818Z,23.30
2023-04-18T04:24:40.516Z,23.30
2023-04-18T04:27:08.621Z,23.30
2023-04-18T04:29:38.696Z,23.40
2023-04-18T04:32:07.094Z,23.40
2023-04-18T04:34:35.821Z,23.40
2023-04-18T04:37:05.358Z,23.40
2023-04-18T04:39:33.453Z,23.40
2023-04-18T04:42:03.926Z,23.40
2023-04-18T04:44:32.167Z,23.40
2023-04-18T04:47:00.299Z,23.30
2023-04-18T04:49:28.387Z,23.30
2023-04-18T04:51:56.453Z,23.30
2023-04-18T04:54:25.996Z,23.40
2023-04-18T04:56:54.116Z,23.30
2023-04-18T04:59:22.240Z,23.40
2023-04-18T05:01:50.547Z,23.40
2023-04-18T05:04:19.033Z,23.30
2023-04-18T05:06:47.509Z,23.30
2023-04-18T05:09:15.595Z,23.40
2023-04-18T05:11:45.058Z,23.40
2023-04-18T05:14:13.484Z,23.40
2023-04-18T05:16:41.879Z,23.30
2023-04-18T05:19:10.010Z,23.30
2023-04-18T05:21:38.243Z,23.40
2023-04-18T05:24:06.373Z,23.40
2023-04-18T05:26:34.494Z,23.50
2023-04-18T05:29:03.988Z,23.50
2023-04-18T05:31:32.361Z,23.50
2023-04-18T05:34:00.667Z,23.50
2023-04-18T05:36:28.796Z,23.50
2023-04-18T05:38:56.916Z,23.50
2023-04-18T05:41:25.004Z,23.60
2023-04-18T05:44:02.269Z,23.60
2023-04-18T05:46:34.268Z,23.60
2023-04-18T05:49:02.477Z,23.50
2023-04-18T05:51:31.352Z,23.60
2023-04-18T05:53:59.478Z,23.60
2023-04-18T05:56:27.606Z,23.60
2023-04-18T05:58:55.990Z,23.60
2023-04-18T06:01:24.078Z,23.60
2023-04-18T06:03:53.658Z,23.60
2023-04-18T06:06:21.847Z,23.60
2023-04-18T06:08:49.995Z,23.60
2023-04-18T06:11:20.145Z,23.60
2023-04-18T06:13:48.501Z,23.60
2023-04-18T06:16:16.723Z,23.60
2023-04-18T06:18:44.944Z,23.60
2023-04-18T06:21:14.546Z,23.60
2023-04-18T06:23:42.788Z,23.60
2023-04-18T06:26:11.178Z,23.70
2023-04-18T06:28:39.454Z,23.70
2023-04-18T06:31:08.580Z,23.70
2023-04-18T06:33:37.881Z,23.80
2023-04-18T06:36:07.284Z,23.80
2023-04-18T06:38:36.820Z,23.80
2023-04-18T06:41:05.163Z,23.80
2023-04-18T06:43:33.262Z,23.80
2023-04-18T06:46:01.461Z,23.70
2023-04-18T06:48:29.610Z,23.70
2023-04-18T06:50:57.722Z,23.70
2023-04-18T06:53:25.900Z,23.70
2023-04-18T06:55:55.387Z,23.80
2023-04-18T06:58:26.534Z,23.80
2023-04-18T07:00:54.631Z,23.80
2023-04-18T07:03:23.012Z,23.80
2023-04-18T07:05:51.521Z,23.90
2023-04-18T07:08:19.625Z,23.90
2023-04-18T07:10:47.734Z,23.90
2023-04-18T07:13:17.262Z,24.00
2023-04-18T07:15:45.369Z,24.00
2023-04-18T07:18:18.034Z,24.00
2023-04-18T07:20:51.618Z,24.00
2023-04-18T07:23:19.786Z,24.10
2023-04-18T07:25:47.920Z,24.20
2023-04-18T07:28:17.640Z,24.20
2023-04-18T07:30:46.124Z,24.20
2023-04-18T07:33:14.261Z,24.20
2023-04-18T07:35:42.994Z,24.20
2023-04-18T07:38:11.762Z,24.10
2023-04-18T07:40:39.924Z,24.20
2023-04-18T07:43:08.013Z,24.20
2023-04-18T07:45:38.466Z,24.20
2023-04-18T07:48:07.563Z,24.30
2023-04-18T07:50:35.692Z,24.30
2023-04-18T07:53:03.849Z,24.30
2023-04-18T07:55:31.937Z,24.30
2023-04-18T07:58:00.082Z,24.30
2023-04-18T08:00:28.769Z,24.40
2023-04-18T08:02:58.362Z,24.50
2023-04-18T08:05:26.681Z,24.60
2023-04-18T08:07:54.901Z,24.70
2023-04-18T08:10:23.922Z,24.80
2023-04-18T08:12:52.225Z,24.90
2023-04-18T08:15:20.467Z,25.00
2023-04-18T08:17:49.198Z,25.10
2023-04-18T08:20:18.827Z,25.20
2023-04-18T08:23:04.199Z,25.40
2023-04-18T08:25:36.308Z,25.50
2023-04-18T08:28:04.911Z,25.60
2023-04-18T08:30:33.087Z,25.40
2023-04-18T08:33:01.736Z,25.30
2023-04-18T08:35:31.350Z,25.30
2023-04-18T08:37:59.493Z,25.30
2023-04-18T08:40:27.677Z,25.50
2023-04-18T08:42:58.411Z,25.60
2023-04-18T08:45:27.109Z,25.80
2023-04-18T08:47:56.123Z,25.90
2023-04-18T08:50:24.442Z,25.90
2023-04-18T08:52:56.116Z,25.90
2023-04-18T08:55:24.421Z,25.90
2023-04-18T08:57:55.288Z,25.80
2023-04-18T09:00:23.877Z,25.90
2023-04-18T09:02:56.666Z,25.90
2023-04-18T09:05:26.878Z,26.00
2023-04-18T09:07:57.481Z,26.00
2023-04-18T09:10:31.003Z,26.10
2023-04-18T09:13:01.045Z,26.10
2023-04-18T09:15:29.875Z,26.10
2023-04-18T09:17:59.646Z,26.10
2023-04-18T09:20:34.597Z,26.10
2023-04-18T09:23:05.566Z,26.20
2023-04-18T09:25:36.299Z,26.40
2023-04-18T09:28:06.180Z,26.40
2023-04-18T09:30:38.063Z,26.50
2023-04-18T09:33:09.491Z,26.50
2023-04-18T09:35:38.625Z,26.50
2023-04-18T09:38:09.331Z,26.50
2023-04-18T09:40:37.800Z,26.60
2023-04-18T09:43:19.822Z,26.70
2023-04-18T09:45:49.640Z,26.70
2023-04-18T09:48:17.832Z,26.60
2023-04-18T09:50:47.245Z,26.60
2023-04-18T09:53:21.041Z,26.60
2023-04-18T09:55:52.549Z,26.50
2023-04-18T09:58:23.283Z,26.50
2023-04-18T10:00:52.471Z,26.60
2023-04-18T10:03:21.396Z,26.60
2023-04-18T10:05:50.219Z,26.70
2023-04-18T10:08:19.995Z,26.70
2023-04-18T10:10:47.901Z,26.80
2023-04-18T10:13:16.324Z,26.90
2023-04-18T10:15:45.654Z,27.20
2023-04-18T10:18:16.981Z,27.40
2023-04-18T10:20:45.592Z,27.70
2023-04-18T10:23:37.885Z,27.80
2023-04-18T10:26:06.986Z,28.00
2023-04-18T10:28:56.717Z,28.00
2023-04-18T10:31:27.030Z,28.00
2023-04-18T10:34:04.697Z,28.00
2023-04-18T10:36:34.130Z,27.90
2023-04-18T10:39:21.410Z,28.00
2023-04-18T10:41:51.554Z,28.00
2023-04-18T10:44:23.855Z,28.00
2023-04-18T10:47:32.085Z,28.00
2023-04-18T10:50:06.297Z,28.00
2023-04-18T10:52:35.006Z,28.00
2023-04-18T10:55:27.265Z,27.90
2023-04-18T10:57:57.498Z,27.90
2023-04-18T11:00:26.770Z,28.00
2023-04-18T11:02:57.835Z,28.10
2023-04-18T11:05:27.826Z,28.40
2023-04-18T11:07:56.318Z,28.50
2023-04-18T11:10:27.410Z,28.80
2023-04-18T11:12:56.192Z,29.20
2023-04-18T11:15:26.847Z,29.30
2023-04-18T11:18:00.842Z,29.20
2023-04-18T11:20:30.104Z,29.20
2023-04-18T11:22:59.395Z,29.20
2023-04-18T11:25:31.911Z,29.20
2023-04-18T11:28:01.304Z,30.20
2023-04-18T11:30:36.758Z,30.70
2023-04-18T11:33:07.557Z,30.90
2023-04-18T11:35:38.993Z,30.90
2023-04-18T11:38:07.183Z,31.30
2023-04-18T11:40:37.208Z,31.90
2023-04-18T11:43:08.829Z,32.10
2023-04-18T11:45:37.039Z,32.50
2023-04-18T11:48:06.076Z,32.80
2023-04-18T11:50:38.202Z,32.70
2023-04-18T11:53:07.528Z,32.60
2023-04-18T11:55:37.200Z,32.70
2023-04-18T11:58:06.084Z,32.60
2023-04-18T12:00:37.252Z,33.30
2023-04-18T12:03:06.893Z,33.80
2023-04-18T12:05:37.005Z,34.40
2023-04-18T12:08:09.991Z,34.70
2023-04-18T12:10:46.306Z,35.00
2023-04-18T12:13:14.553Z,35.90
2023-04-18T12:15:45.445Z,36.80
2023-04-18T12:18:15.729Z,37.50
2023-04-18T12:20:50.054Z,38.10
2023-04-18T12:23:31.529Z,38.60
2023-04-18T12:26:05.722Z,38.60
2023-04-18T12:28:34.812Z,37.80
2023-04-18T12:31:03.095Z,37.60
2023-04-18T12:33:31.947Z,38.20
2023-04-18T12:36:00.624Z,38.70
2023-04-18T12:38:28.878Z,39.20
2023-04-18T12:40:57.024Z,39.80
2023-04-18T12:43:26.731Z,40.20
2023-04-18T12:45:54.998Z,40.40
2023-04-18T12:48:23.123Z,40.50
2023-04-18T12:50:51.256Z,40.70
2023-04-18T12:53:19.369Z,40.50
2023-04-18T12:55:47.818Z,40.90
2023-04-18T12:58:18.707Z,40.50
2023-04-18T13:00:48.400Z,40.00
2023-04-18T13:03:16.842Z,40.50
2023-04-18T13:05:45.179Z,40.90
2023-04-18T13:08:17.732Z,41.20
2023-04-18T13:10:47.599Z,41.40
2023-04-18T13:13:16.017Z,41.70
2023-04-18T13:15:44.342Z,41.70
2023-04-18T13:18:13.828Z,41.80
2023-04-18T13:20:41.969Z,41.90
2023-04-18T13:23:10.083Z,42.10
2023-04-18T13:25:38.320Z,41.90
2023-04-18T13:28:06.621Z,41.40
2023-04-18T13:30:35.882Z,41.40
2023-04-18T13:33:04.204Z,41.70
2023-04-18T13:35:33.788Z,42.00
2023-04-18T13:38:01.877Z,42.20
2023-04-18T13:40:30.052Z,42.40
2023-04-18T13:42:58.130Z,42.60
2023-04-18T13:45:26.277Z,42.70
2023-04-18T13:47:54.459Z,42.80
2023-04-18T13:50:23.223Z,42.90
2023-04-18T13:52:54.561Z,43.00
2023-04-18T13:55:22.848Z,43.10
2023-04-18T13:57:51.067Z,43.10
2023-04-18T14:00:20.165Z,43.00
2023-04-18T14:02:48.502Z,42.50
2023-04-18T14:05:16.844Z,42.40
2023-04-18T14:07:44.924Z,42.60
2023-04-18T14:10:14.518Z,42.80
2023-04-18T14:12:42.934Z,43.10
2023-04-18T14:15:11.994Z,43.50
2023-04-18T14:17:40.248Z,44.10
2023-04-18T14:20:09.434Z,44.80
2023-04-18T14:22:37.590Z,45.30
2023-04-18T14:25:06.502Z,45.80
2023-04-18T14:27:35.965Z,46.10
2023-04-18T14:30:04.227Z,46.50
2023-04-18T14:32:32.328Z,46.70
2023-04-18T14:35:00.467Z,47.00
2023-04-18T14:37:28.569Z,46.50
2023-04-18T14:39:56.699Z,45.20
2023-04-18T14:42:24.785Z,44.50
2023-04-18T14:44:54.354Z,44.00
2023-04-18T14:47:24.231Z,43.80
2023-04-18T14:49:52.613Z,43.60
2023-04-18T14:52:20.722Z,43.40
2023-04-18T14:54:48.917Z,43.30
2023-04-18T14:57:17.028Z,43.30
2023-04-18T14:59:45.157Z,43.10
2023-04-18T15:02:14.716Z,43.00
2023-04-18T15:04:43.234Z,42.90
2023-04-18T15:07:11.441Z,42.70
2023-04-18T15:09:39.779Z,42.60
2023-04-18T15:12:08.293Z,42.60
2023-04-18T15:14:36.258Z,42.40
2023-04-18T15:17:06.178Z,42.20
2023-04-18T15:19:35.755Z,42.00
2023-04-18T15:22:04.057Z,41.90
2023-04-18T15:24:32.170Z,41.90
2023-04-18T15:27:00.310Z,41.80
2023-04-18T15:29:29.102Z,41.60
2023-04-18T15:31:58.001Z,41.50
2023-04-18T15:34:26.375Z,41.40
2023-04-18T15:36:55.875Z,41.30
2023-04-18T15:39:24.050Z,41.20
2023-04-18T15:41:54.826Z,41.00
2023-04-18T15:44:23.112Z,40.60
2023-04-18T15:46:51.872Z,40.20
2023-04-18T15:49:19.762Z,39.80
2023-04-18T15:51:47.875Z,39.50
2023-04-18T15:54:17.410Z,39.10
2023-04-18T15:56:45.823Z,38.80
2023-04-18T15:59:14.704Z,38.40
2023-04-18T16:01:45.643Z,38.10
2023-04-18T16:04:14.484Z,37.80
2023-04-18T16:06:43.257Z,37.40
2023-04-18T16:09:11.372Z,37.20
2023-04-18T16:11:40.910Z,36.90
2023-04-18T16:14:09.023Z,36.30
2023-04-18T16:16:37.146Z,35.50
2023-04-18T16:19:05.688Z,34.80
2023-04-18T16:21:33.817Z,34.70
2023-04-18T16:24:02.034Z,35.00
2023-04-18T16:26:30.405Z,35.40
2023-04-18T16:28:59.947Z,35.70
2023-04-18T16:31:28.096Z,35.90
2023-04-18T16:33:56.476Z,36.10
2023-04-18T16:36:24.636Z,36.20
2023-04-18T16:38:52.758Z,36.30
2023-04-18T16:41:20.897Z,36.30
2023-04-18T16:43:49.009Z,36.00
2023-04-18T16:46:19.150Z,35.70
2023-04-18T16:48:48.596Z,35.70
2023-04-18T16:51:17.646Z,35.70
2023-04-18T16:53:46.723Z,34.90
2023-04-18T16:56:14.837Z,34.50
2023-04-18T16:58:42.954Z,34.40
2023-04-18T17:01:11.089Z,34.30
2023-04-18T17:03:41.066Z,34.20
2023-04-18T17:06:09.356Z,34.10
2023-04-18T17:08:37.460Z,34.00
2023-04-18T17:11:05.778Z,33.90
2023-04-18T17:13:33.905Z,33.70
2023-04-18T17:16:02.061Z,33.60
2023-04-18T17:18:30.451Z,33.40
2023-04-18T17:20:59.972Z,33.20
2023-04-18T17:23:28.078Z,33.10
2023-04-18T17:25:56.246Z,33.00
2023-04-18T17:28:25.125Z,32.90
2023-04-18T17:30:53.278Z,32.40
2023-04-18T17:33:21.418Z,32.10
2023-04-18T17:35:50.338Z,32.10
2023-04-18T17:38:19.829Z,32.00
2023-04-18T17:40:47.985Z,31.90
2023-04-18T17:43:16.383Z,31.80
2023-04-18T17:45:44.545Z,31.60
2023-04-18T17:48:12.819Z,31.50
2023-04-18T17:50:42.560Z,31.30
2023-04-18T17:53:12.353Z,31.20
2023-04-18T17:55:42.644Z,31.10
2023-04-18T17:58:10.853Z,31.10
2023-04-18T18:00:39.013Z,31.10
2023-04-18T18:03:09.321Z,31.00
2023-04-18T18:05:37.649Z,31.00
2023-04-18T18:08:05.971Z,31.00
2023-04-18T18:10:34.869Z,30.90
2023-04-18T18:13:04.740Z,30.80
2023-04-18T18:15:32.911Z,30.80
2023-04-18T18:18:01.879Z,30.70
2023-04-18T18:20:30.815Z,30.50
2023-04-18T18:22:59.639Z,30.20
2023-04-18T18:25:28.601Z,29.80
2023-04-18T18:27:56.729Z,29.60
2023-04-18T18:30:26.287Z,29.60
2023-04-18T18:32:54.461Z,29.60
2023-04-18T18:35:22.649Z,29.70
2023-04-18T18:37:50.754Z,29.70
2023-04-18T18:40:18.999Z,29.70
2023-04-18T18:42:49.386Z,29.60
2023-04-18T18:45:17.597Z,29.60
2023-04-18T18:47:47.286Z,29.50
2023-04-18T18:50:15.690Z,29.50
2023-04-18T18:52:43.964Z,29.50
2023-04-18T18:55:12.540Z,29.40
2023-04-18T18:57:40.665Z,29.40
2023-04-18T19:00:11.887Z,29.40
2023-04-18T19:02:40.767Z,29.30
2023-04-18T19:05:12.616Z,29.30
2023-04-18T19:07:41.807Z,29.30
2023-04-18T19:10:11.432Z,29.30
2023-04-18T19:12:39.454Z,29.20
2023-04-18T19:15:08.807Z,29.20
2023-04-18T19:17:36.958Z,29.10
2023-04-18T19:20:05.952Z,29.10
2023-04-18T19:22:35.445Z,29.00
2023-04-18T19:25:03.871Z,29.00
2023-04-18T19:27:31.986Z,29.00
2023-04-18T19:30:00.143Z,28.90
2023-04-18T19:32:28.303Z,28.90
2023-04-18T19:34:56.541Z,28.90
2023-04-18T19:37:24.678Z,28.80
2023-04-18T19:39:54.245Z,28.80
2023-04-18T19:42:22.134Z,28.80
2023-04-18T19:44:50.292Z,28.80
2023-04-18T19:47:18.595Z,28.80
2023-04-18T19:49:46.802Z,28.70
2023-04-18T19:52:14.907Z,28.70
2023-04-18T19:54:43.021Z,28.60
2023-04-18T19:57:12.498Z,28.60
2023-04-18T19:59:40.746Z,28.60
2023-04-18T20:02:09.108Z,28.40
2023-04-18T20:04:37.673Z,28.30
2023-04-18T20:07:06.399Z,28.30
2023-04-18T20:09:34.622Z,28.30
2023-04-18T20:12:02.784Z,28.30
2023-04-18T20:14:33.318Z,28.30
2023-04-18T20:17:01.426Z,28.20
2023-04-18T20:19:29.820Z,28.20
2023-04-18T20:21:58.057Z,28.20
2023-04-18T20:24:28.077Z,28.10
2023-04-18T20:26:57.191Z,28.10
2023-04-18T20:29:25.417Z,28.00
2023-04-18T20:31:55.138Z,28.00
2023-04-18T20:34:23.349Z,28.00
2023-04-18T20:36:52.528Z,28.00
2023-04-18T20:39:20.684Z,27.90
2023-04-18T20:41:51.324Z,27.90
2023-04-18T20:44:21.661Z,27.80
2023-04-18T20:46:49.859Z,27.80
2023-04-18T20:49:19.372Z,27.80
2023-04-18T20:51:47.550Z,27.80
2023-04-18T20:54:16.111Z,27.70
2023-04-18T20:56:46.206Z,27.70
2023-04-18T20:59:14.357Z,27.70
2023-04-18T21:01:42.682Z,27.60
2023-04-18T21:04:11.104Z,27.60
2023-04-18T21:06:40.714Z,27.60
2023-04-18T21:09:08.932Z,27.50
2023-04-18T21:11:37.020Z,27.50
2023-04-18T21:14:06.720Z,27.40
2023-04-18T21:16:35.981Z,27.40
2023-04-18T21:19:04.173Z,27.40
2023-04-18T21:21:34.217Z,27.30
2023-04-18T21:24:03.799Z,27.30
2023-04-18T21:26:31.956Z,27.30
2023-04-18T21:29:01.488Z,27.20
2023-04-18T21:31:30.413Z,27.20
2023-04-18T21:34:01.300Z,27.20
2023-04-18T21:36:30.709Z,27.20
2023-04-18T21:39:00.495Z,27.20
2023-04-18T21:41:30.125Z,27.10
2023-04-18T21:43:58.059Z,27.10
2023-04-18T21:46:26.537Z,27.10
2023-04-18T21:48:54.827Z,27.00
2023-04-18T21:51:22.999Z,27.00
2023-04-18T21:53:51.146Z,27.00
2023-04-18T21:56:19.280Z,27.00
2023-04-18T21:58:48.820Z,26.90
2023-04-18T22:01:16.938Z,26.90
2023-04-18T22:03:46.317Z,26.90
2023-04-18T22:06:14.616Z,26.90
2023-04-18T22:08:43.685Z,26.80
2023-04-18T22:11:13.622Z,26.80
2023-04-18T22:13:44.636Z,26.80
2023-04-18T22:16:14.228Z,26.80
2023-04-18T22:18:42.207Z,26.70
2023-04-18T22:21:10.566Z,26.70
2023-04-18T22:23:38.690Z,26.70
2023-04-18T22:26:07.058Z,26.70
2023-04-18T22:28:35.178Z,26.70
2023-04-18T22:31:03.356Z,26.60
2023-04-18T22:33:32.894Z,26.60
2023-04-18T22:36:01.615Z,26.60
2023-04-18T22:38:29.766Z,26.60
2023-04-18T22:40:57.940Z,26.50
2023-04-18T22:43:26.858Z,26.50
2023-04-18T22:45:55.042Z,26.50
2023-04-18T22:48:23.755Z,26.50
2023-04-18T22:50:53.448Z,26.40
2023-04-18T22:53:21.400Z,26.40
2023-04-18T22:55:49.548Z,26.40
2023-04-18T22:58:17.681Z,26.40
2023-04-18T23:00:45.993Z,26.40
2023-04-18T23:03:14.258Z,26.40
2023-04-18T23:05:42.567Z,26.30
2023-04-18T23:08:12.166Z,26.30
2023-04-18T23:10:40.204Z,26.30
2023-04-18T23:13:08.436Z,26.30
2023-04-18T23:15:36.553Z,26.20
2023-04-18T23:18:04.733Z,26.20
2023-04-18T23:20:32.882Z,26.20
2023-04-18T23:23:00.994Z,26.20
2023-04-18T23:25:32.560Z,26.10
2023-04-18T23:28:00.727Z,26.10
2023-04-18T23:30:28.867Z,26.10
2023-04-18T23:32:56.954Z,26.00
2023-04-18T23:35:25.220Z,26.00
2023-04-18T23:37:53.282Z,26.00
2023-04-18T23:40:21.864Z,26.00
2023-04-18T23:42:51.324Z,26.00
2023-04-18T23:45:19.574Z,26.00
2023-04-18T23:47:47.859Z,26.00
2023-04-18T23:50:15.994Z,26.00
2023-04-18T23:52:44.088Z,25.90
2023-04-18T23:55:12.255Z,25.90
2023-04-18T23:57:40.494Z,25.80
